Baita Airport
ZBHH : now visible

Airfield :











YOU CAN JOIN US ON...

 
LOGIN :

Register | Disclaimer

   EN    FR    IT 

 









Legend :    VFR   Marginal VFR   IFR   Intensive IFR   Very Intensive IFR
Visi :
Ceiling :
>= 8 km
>= 3000ft
5 to 8 km
1000 to 3000 ft
1500m to 5 km
500 to 1000 ft
800 to 1500m
200 to 500 ft
< 800m
< 200 ft
Symbols :   Thunderstorms  Fog  Heavy snow  Heavy precipitations  Wind > 20 kt






- Airport Elevation : 3556 ft
- IATA code : HET


ZBHH - Baita

CURRENT METAR :
  • 141500Z 32004MPS 290V010 4500 DU NSC 09/M09 Q1015 NOSIG

EXPIRED METARs :
  • 141400Z 32005MPS 290V360 CAVOK 11/M07 Q1013 NOSIG
  • 141300Z 35005MPS CAVOK 11/M07 Q1013 NOSIG
  • 141200Z 35007MPS 310V020 CAVOK 12/M07 Q1011 NOSIG
  • 141100Z 35007MPS CAVOK 14/M06 Q1010 NOSIG

TAF TAF ZBHH
Valid from the 14 at 12:00 until the 15 at 12:00 UTC


140909Z 1412/1512 34006G11MPS 6000 FEW040 TX21/1507Z TN03/1422Z
BECMG 1416/1418 04004MPS
BECMG 1504/1506 33007G12MPS
ZBPE FIR / Asia



MET'MAP, your aeronautical weather chart ! - Copyright ORBIFLY December 2007 - Disclaimer

ORBIFLY MET'MAP TEAM :

Programming & Development : Alexandra Zaïnal
Original concept : Baudouin d'Aumeries
Technical & hardware support : Manuel Goepfert
Assistance : Marc-Olivier Méhu




SOURCES & CREDITS :

   NOAA       Earth
Advisory